Time;durP1;ratioP1;P1;durP2;ratioP2;P2;SDS_P1;SDS_P2;PMS_P1;PMS_P2;Temp;Humidity;BMP_temperature;BMP_pressure;BME280_temperature;BME280_humidity;BME280_pressure;Samples;Min_cycle;Max_cycle;Signal;HPM_P1;HPM_P2
2023/09/26 00:01:10;;;;;;;;;;;14.70;99.90;;;;;;5058906;28;19908;-73
2023/09/26 00:03:35;;;;;;;;;;;14.60;99.90;;;;;;5058735;28;19912;-73
2023/09/26 00:06:02;;;;;;;;;;;14.60;99.90;;;;;;5058794;28;20478;-73
2023/09/26 00:08:27;;;;;;;;;;;14.60;99.90;;;;;;5058593;28;19919;-72
2023/09/26 00:10:53;;;;;;;;;;;14.60;99.90;;;;;;5058826;28;20369;-73
2023/09/26 00:13:18;;;;;;;;;;;14.60;99.90;;;;;;5056958;28;19909;-73
2023/09/26 00:15:45;;;;;;;;;;;14.50;99.90;;;;;;5056992;28;19912;-73
2023/09/26 00:18:10;;;;;;;;;;;14.50;99.90;;;;;;5056885;28;19909;-73
2023/09/26 00:20:38;;;;;;;;;;;14.50;99.90;;;;;;5058379;28;20309;-73
2023/09/26 00:23:07;;;;;;;;;;;14.50;99.90;;;;;;5058322;28;19912;-73
2023/09/26 00:25:32;;;;;;;;;;;14.40;99.90;;;;;;5058409;28;20710;-73
2023/09/26 00:27:58;;;;;;;;;;;14.40;99.90;;;;;;5056262;28;19935;-73
2023/09/26 00:30:25;;;;;;;;;;;14.30;99.90;;;;;;5090770;28;19916;-73
2023/09/26 00:32:51;;;;;;;;;;;14.30;99.90;;;;;;5057526;28;19916;-73
2023/09/26 00:35:17;;;;;;;;;;;14.30;99.90;;;;;;5058024;28;19916;-73
2023/09/26 00:37:47;;;;;;;;;;;14.30;99.90;;;;;;5058029;28;19908;-73
2023/09/26 00:40:18;;;;;;;;;;;14.30;99.90;;;;;;5058202;28;19913;-72
2023/09/26 00:42:44;;;;;;;;;;;14.40;99.90;;;;;;5056428;28;19913;-72
2023/09/26 00:45:11;;;;;;;;;;;14.30;99.90;;;;;;5058098;28;19938;-73
2023/09/26 00:47:37;;;;;;;;;;;14.30;99.90;;;;;;5070129;28;20392;-73
2023/09/26 00:50:03;;;;;;;;;;;14.40;99.90;;;;;;5070893;28;19909;-73
2023/09/26 00:52:29;;;;;;;;;;;14.30;99.90;;;;;;5057752;28;20292;-73
2023/09/26 00:54:55;;;;;;;;;;;14.30;99.90;;;;;;5057761;28;20284;-73
2023/09/26 00:57:21;;;;;;;;;;;14.30;99.90;;;;;;5057562;28;19916;-73
2023/09/26 00:59:47;;;;;;;;;;;14.30;99.90;;;;;;5057834;28;20012;-73
2023/09/26 01:02:12;;;;;;;;;;;14.30;99.90;;;;;;5057752;28;19919;-73
2023/09/26 01:04:38;;;;;;;;;;;14.40;99.90;;;;;;5057294;28;20003;-72
2023/09/26 01:07:03;;;;;;;;;;;14.40;99.90;;;;;;5057831;28;19917;-73
2023/09/26 01:09:29;;;;;;;;;;;14.50;99.90;;;;;;5057613;28;19913;-73
2023/09/26 01:11:55;;;;;;;;;;;14.90;99.90;;;;;;5055698;28;19909;-73
2023/09/26 01:14:21;;;;;;;;;;;15.00;99.90;;;;;;5057510;28;19912;-73
2023/09/26 01:16:53;;;;;;;;;;;15.10;99.90;;;;;;5057365;28;19916;-74
2023/09/26 01:19:18;;;;;;;;;;;15.20;99.90;;;;;;5057140;28;19999;-73
2023/09/26 01:21:44;;;;;;;;;;;15.20;99.90;;;;;;5057440;28;19963;-73
2023/09/26 01:24:09;;;;;;;;;;;15.20;99.90;;;;;;5057347;28;19976;-73
2023/09/26 01:26:36;;;;;;;;;;;15.10;99.90;;;;;;5056582;28;20373;-73
2023/09/26 01:29:02;;;;;;;;;;;15.10;99.90;;;;;;5055445;28;19913;-73
2023/09/26 01:31:28;;;;;;;;;;;15.00;99.90;;;;;;5057442;28;19966;-72
2023/09/26 01:33:53;;;;;;;;;;;14.90;99.90;;;;;;5057183;28;19916;-72
2023/09/26 01:36:19;;;;;;;;;;;14.80;99.90;;;;;;5089427;28;20771;-72
2023/09/26 01:38:44;;;;;;;;;;;14.90;99.90;;;;;;5056730;28;19955;-72
2023/09/26 01:41:10;;;;;;;;;;;14.90;99.90;;;;;;5057075;28;19935;-73
2023/09/26 01:43:35;;;;;;;;;;;15.10;99.90;;;;;;5055159;28;19913;-73
2023/09/26 01:46:02;;;;;;;;;;;15.20;99.90;;;;;;5056935;28;20289;-72
2023/09/26 01:48:28;;;;;;;;;;;15.40;99.90;;;;;;5056615;28;19913;-72
2023/09/26 01:50:53;;;;;;;;;;;15.40;99.90;;;;;;5056699;28;19912;-73
2023/09/26 01:53:19;;;;;;;;;;;15.40;99.90;;;;;;5056560;28;19917;-72
2023/09/26 01:55:44;;;;;;;;;;;15.50;99.90;;;;;;5056637;28;20016;-72
2023/09/26 01:58:10;;;;;;;;;;;15.40;99.90;;;;;;5055038;28;19913;-72
2023/09/26 02:00:35;;;;;;;;;;;15.40;99.90;;;;;;5053386;28;20012;-73
2023/09/26 02:03:01;;;;;;;;;;;15.40;99.90;;;;;;5056476;28;19999;-73
2023/09/26 02:05:26;;;;;;;;;;;15.40;99.90;;;;;;5056031;28;19908;-73
2023/09/26 02:07:52;;;;;;;;;;;15.40;99.90;;;;;;5056439;28;20306;-72
2023/09/26 02:10:18;;;;;;;;;;;15.50;99.90;;;;;;5054859;28;20274;-72
2023/09/26 02:12:45;;;;;;;;;;;15.50;99.90;;;;;;5056251;28;19909;-72
2023/09/26 02:15:12;;;;;;;;;;;15.30;99.90;;;;;;5054927;28;19952;-72
2023/09/26 02:17:41;;;;;;;;;;;15.30;99.90;;;;;;5056067;28;20309;-73
2023/09/26 02:20:12;;;;;;;;;;;15.20;99.90;;;;;;5056115;28;20270;-73
2023/09/26 02:22:42;;;;;;;;;;;15.10;99.90;;;;;;5056599;28;19955;-73
2023/09/26 02:25:08;;;;;;;;;;;15.10;99.90;;;;;;5056287;28;20003;-72
2023/09/26 02:27:33;;;;;;;;;;;15.10;99.90;;;;;;5055714;28;19924;-72
2023/09/26 02:29:59;;;;;;;;;;;15.00;99.90;;;;;;5054690;28;20436;-72
2023/09/26 02:32:24;;;;;;;;;;;14.90;99.90;;;;;;5055933;28;19915;-73
2023/09/26 02:34:50;;;;;;;;;;;14.90;99.90;;;;;;5055814;28;19931;-72
2023/09/26 02:37:15;;;;;;;;;;;14.80;99.90;;;;;;5055887;28;20414;-73
2023/09/26 02:39:41;;;;;;;;;;;14.80;99.90;;;;;;5055132;28;20453;-73
2023/09/26 02:42:06;;;;;;;;;;;14.70;99.90;;;;;;5055659;28;19913;-72
2023/09/26 02:44:32;;;;;;;;;;;14.60;99.90;;;;;;5055758;28;19988;-73
2023/09/26 02:46:58;;;;;;;;;;;14.50;99.90;;;;;;5055818;28;20393;-72
2023/09/26 02:49:23;;;;;;;;;;;14.40;99.90;;;;;;5068555;28;19909;-72
2023/09/26 02:51:49;;;;;;;;;;;14.40;99.90;;;;;;5071307;28;19908;-73
2023/09/26 02:54:14;;;;;;;;;;;14.30;99.90;;;;;;5055464;28;19912;-73
2023/09/26 02:56:40;;;;;;;;;;;14.20;99.90;;;;;;5056032;28;19916;-73
2023/09/26 02:59:05;;;;;;;;;;;14.10;99.90;;;;;;5068232;28;19916;-73
2023/09/26 03:01:31;;;;;;;;;;;14.00;99.90;;;;;;5071382;28;19913;-73
2023/09/26 03:03:57;;;;;;;;;;;13.90;99.90;;;;;;5055527;28;19919;-73
2023/09/26 03:06:22;;;;;;;;;;;13.80;99.90;;;;;;5055766;28;19913;-73
2023/09/26 03:08:48;;;;;;;;;;;13.70;99.90;;;;;;5054485;28;19924;-73
2023/09/26 03:11:13;;;;;;;;;;;13.70;99.90;;;;;;5054480;28;19966;-73
2023/09/26 03:13:39;;;;;;;;;;;13.60;99.90;;;;;;5055348;28;19908;-72
2023/09/26 03:16:07;;;;;;;;;;;13.60;99.90;;;;;;5055580;28;19909;-73
2023/09/26 03:18:33;;;;;;;;;;;13.50;99.90;;;;;;5055267;28;19908;-73
2023/09/26 03:21:00;;;;;;;;;;;13.50;99.90;;;;;;5055370;28;19995;-72
2023/09/26 03:23:26;;;;;;;;;;;13.40;99.90;;;;;;5055198;28;19909;-73
2023/09/26 03:25:51;;;;;;;;;;;13.40;99.90;;;;;;5055604;28;19913;-73
2023/09/26 03:28:17;;;;;;;;;;;13.40;99.90;;;;;;5054923;28;19932;-72
2023/09/26 03:30:43;;;;;;;;;;;13.60;99.90;;;;;;5055660;28;19912;-73
2023/09/26 03:33:10;;;;;;;;;;;13.80;99.90;;;;;;5087691;28;19975;-73
2023/09/26 03:35:35;;;;;;;;;;;13.90;99.90;;;;;;5054078;28;19913;-73
2023/09/26 03:38:01;;;;;;;;;;;13.90;99.90;;;;;;5055223;28;20393;-73
2023/09/26 03:40:27;;;;;;;;;;;14.10;99.90;;;;;;5055391;28;19908;-73
2023/09/26 03:42:52;;;;;;;;;;;14.20;99.90;;;;;;5055013;28;20407;-73
2023/09/26 03:45:18;;;;;;;;;;;14.30;99.90;;;;;;5046455;28;19917;-73
2023/09/26 03:47:43;;;;;;;;;;;14.40;99.90;;;;;;5067203;28;19912;-73
2023/09/26 03:50:09;;;;;;;;;;;14.50;99.90;;;;;;5055685;28;19962;-72
2023/09/26 03:52:35;;;;;;;;;;;14.80;99.90;;;;;;5058981;28;20011;-73
2023/09/26 03:55:02;;;;;;;;;;;14.90;99.90;;;;;;5058661;28;19920;-73
2023/09/26 03:57:31;;;;;;;;;;;15.10;99.90;;;;;;5058723;28;19916;-72
2023/09/26 03:59:56;;;;;;;;;;;15.20;99.90;;;;;;5058556;28;19991;-73
2023/09/26 04:02:22;;;;;;;;;;;15.40;99.90;;;;;;5058841;28;19949;-73
2023/09/26 04:04:47;;;;;;;;;;;15.40;99.90;;;;;;5090619;28;19909;-73
2023/09/26 04:07:14;;;;;;;;;;;15.40;99.90;;;;;;5058719;28;20411;-73
2023/09/26 04:09:39;;;;;;;;;;;15.50;99.90;;;;;;5058700;28;19913;-72
2023/09/26 04:12:05;;;;;;;;;;;15.60;99.90;;;;;;5058575;28;19912;-72
2023/09/26 04:14:30;;;;;;;;;;;15.60;99.90;;;;;;5057153;28;19923;-72
2023/09/26 04:16:56;;;;;;;;;;;15.70;99.90;;;;;;5058533;28;19916;-72
2023/09/26 04:19:22;;;;;;;;;;;15.70;99.90;;;;;;5090602;28;19916;-73
2023/09/26 04:21:47;;;;;;;;;;;15.60;99.90;;;;;;5088708;28;19909;-73
2023/09/26 04:24:13;;;;;;;;;;;15.60;99.90;;;;;;5058398;28;19909;-72
2023/09/26 04:26:38;;;;;;;;;;;15.60;99.90;;;;;;5058209;28;19921;-73
2023/09/26 04:29:05;;;;;;;;;;;15.60;99.90;;;;;;5058024;28;19940;-72
2023/09/26 04:31:30;;;;;;;;;;;15.50;99.90;;;;;;5071885;28;19917;-73
2023/09/26 04:33:56;;;;;;;;;;;15.50;99.90;;;;;;5058119;28;19923;-72
2023/09/26 04:36:22;;;;;;;;;;;15.40;99.90;;;;;;5058106;28;19954;-72
2023/09/26 04:38:48;;;;;;;;;;;15.50;99.90;;;;;;5058080;28;20349;-72
2023/09/26 04:41:13;;;;;;;;;;;15.50;99.90;;;;;;5058037;28;20011;-73
2023/09/26 04:43:39;;;;;;;;;;;15.40;99.90;;;;;;5057754;28;19908;-73
2023/09/26 04:46:17;;;;;;;;;;;15.40;99.90;;;;;;5070318;28;19920;-73
2023/09/26 04:48:43;;;;;;;;;;;15.50;99.90;;;;;;5050881;28;19909;-72
2023/09/26 04:51:09;;;;;;;;;;;15.40;99.90;;;;;;5056669;28;19931;-73
2023/09/26 04:53:35;;;;;;;;;;;15.40;99.90;;;;;;5057944;28;19909;-73
2023/09/26 04:56:01;;;;;;;;;;;15.30;99.90;;;;;;5057787;28;20419;-73
2023/09/26 04:58:29;;;;;;;;;;;15.20;99.90;;;;;;5057634;28;19912;-73
2023/09/26 05:00:54;;;;;;;;;;;15.20;99.90;;;;;;5057623;28;20000;-72
2023/09/26 05:03:20;;;;;;;;;;;15.10;99.90;;;;;;5057014;28;19943;-72
2023/09/26 05:05:45;;;;;;;;;;;15.10;99.90;;;;;;5057133;28;19999;-72
2023/09/26 05:08:11;;;;;;;;;;;15.00;99.90;;;;;;5073075;28;19913;-72
2023/09/26 05:10:37;;;;;;;;;;;14.90;99.90;;;;;;5056094;28;19917;-73
2023/09/26 05:13:03;;;;;;;;;;;14.80;99.90;;;;;;5056053;28;19934;-73
2023/09/26 05:15:32;;;;;;;;;;;14.90;99.90;;;;;;5069974;28;19917;-72
2023/09/26 05:17:57;;;;;;;;;;;14.90;99.90;;;;;;5057477;28;19913;-72
2023/09/26 05:20:24;;;;;;;;;;;14.90;99.90;;;;;;5057138;28;19924;-73
2023/09/26 05:22:50;;;;;;;;;;;14.90;99.90;;;;;;5057664;28;19916;-72
2023/09/26 05:25:16;;;;;;;;;;;14.80;99.90;;;;;;5055830;28;20376;-72
2023/09/26 05:27:43;;;;;;;;;;;14.70;99.90;;;;;;5057163;28;19925;-72
2023/09/26 05:30:09;;;;;;;;;;;14.70;99.90;;;;;;5069806;28;20359;-73
2023/09/26 05:32:35;;;;;;;;;;;14.70;99.90;;;;;;5057055;28;20376;-73
2023/09/26 05:35:01;;;;;;;;;;;14.60;99.90;;;;;;5056866;28;19982;-72
2023/09/26 05:37:27;;;;;;;;;;;14.50;99.90;;;;;;5055749;28;19952;-72
2023/09/26 05:39:52;;;;;;;;;;;14.40;99.90;;;;;;5065346;28;20007;-72
2023/09/26 05:42:18;;;;;;;;;;;14.30;99.90;;;;;;5056760;28;19919;-72
2023/09/26 05:44:43;;;;;;;;;;;14.40;99.90;;;;;;5056688;28;19917;-72
2023/09/26 05:47:09;;;;;;;;;;;14.40;99.90;;;;;;5056861;28;19909;-72
2023/09/26 05:49:35;;;;;;;;;;;14.30;99.90;;;;;;5056908;28;19909;-72
2023/09/26 05:52:01;;;;;;;;;;;14.30;99.90;;;;;;5088728;28;19985;-72
2023/09/26 05:54:28;;;;;;;;;;;14.20;99.90;;;;;;5055332;28;20270;-72
2023/09/26 05:56:53;;;;;;;;;;;14.20;99.90;;;;;;5056338;28;19912;-72
2023/09/26 05:59:19;;;;;;;;;;;14.10;99.90;;;;;;5056696;28;19935;-72
2023/09/26 06:01:44;;;;;;;;;;;14.10;99.90;;;;;;5056622;28;19909;-72
2023/09/26 06:04:10;;;;;;;;;;;14.10;99.90;;;;;;5055226;28;19916;-72
2023/09/26 06:06:35;;;;;;;;;;;14.10;99.90;;;;;;5056513;28;19909;-73
2023/09/26 06:09:02;;;;;;;;;;;14.30;99.90;;;;;;5056525;28;19913;-72
2023/09/26 06:11:27;;;;;;;;;;;14.50;99.90;;;;;;5056542;28;19923;-72
2023/09/26 06:13:53;;;;;;;;;;;14.60;99.90;;;;;;5056064;28;19913;-73
2023/09/26 06:16:19;;;;;;;;;;;14.60;99.90;;;;;;5055114;28;19920;-72
2023/09/26 06:18:44;;;;;;;;;;;14.60;99.90;;;;;;5056175;28;19912;-72
2023/09/26 06:21:10;;;;;;;;;;;14.80;99.90;;;;;;5056104;28;19909;-72
2023/09/26 06:23:36;;;;;;;;;;;14.80;99.90;;;;;;5056279;28;19909;-73
2023/09/26 06:26:02;;;;;;;;;;;14.90;99.90;;;;;;5088490;28;20328;-73
2023/09/26 06:28:28;;;;;;;;;;;15.00;99.90;;;;;;5055901;28;19930;-73
2023/09/26 06:30:53;;;;;;;;;;;15.10;99.90;;;;;;5056258;28;20571;-73
2023/09/26 06:33:19;;;;;;;;;;;15.20;99.90;;;;;;5055826;28;20404;-72
2023/09/26 06:35:45;;;;;;;;;;;15.40;99.90;;;;;;5055816;28;20439;-73
2023/09/26 06:38:11;;;;;;;;;;;15.50;99.90;;;;;;5056114;28;19909;-73
2023/09/26 06:40:37;;;;;;;;;;;15.70;99.90;;;;;;5054533;28;19909;-73
2023/09/26 06:43:02;;;;;;;;;;;15.80;99.90;;;;;;5070213;28;19916;-73
2023/09/26 06:45:28;;;;;;;;;;;15.90;99.90;;;;;;5055869;28;19919;-73
2023/09/26 06:47:54;;;;;;;;;;;16.10;99.90;;;;;;5054614;28;19913;-72
2023/09/26 06:50:21;;;;;;;;;;;16.20;99.90;;;;;;5055808;28;19916;-74
2023/09/26 06:52:47;;;;;;;;;;;16.30;99.90;;;;;;5055787;28;19919;-73
2023/09/26 06:55:12;;;;;;;;;;;16.40;99.90;;;;;;5071308;28;19912;-73
2023/09/26 06:57:38;;;;;;;;;;;16.50;99.90;;;;;;5055566;28;19956;-72
2023/09/26 07:00:11;;;;;;;;;;;16.60;99.90;;;;;;5055874;28;19913;-73
2023/09/26 07:02:37;;;;;;;;;;;16.70;99.90;;;;;;5043009;28;19916;-74
2023/09/26 07:05:03;;;;;;;;;;;16.80;99.90;;;;;;5054137;28;19909;-72
2023/09/26 07:07:31;;;;;;;;;;;16.90;99.90;;;;;;5055859;28;19916;-74
2023/09/26 07:09:58;;;;;;;;;;;16.90;99.90;;;;;;5054275;28;19909;-72
2023/09/26 07:12:26;;;;;;;;;;;17.00;99.90;;;;;;5055591;28;19908;-73
2023/09/26 07:14:56;;;;;;;;;;;17.10;99.90;;;;;;5055523;28;19935;-72
2023/09/26 07:17:22;;;;;;;;;;;17.20;99.90;;;;;;5055754;28;19915;-72
2023/09/26 07:19:48;;;;;;;;;;;17.30;99.90;;;;;;5053843;28;19913;-73
2023/09/26 07:22:14;;;;;;;;;;;17.40;99.90;;;;;;5055545;28;19931;-74
2023/09/26 07:24:40;;;;;;;;;;;17.50;99.90;;;;;;5055345;28;19913;-72
2023/09/26 07:27:06;;;;;;;;;;;17.60;99.90;;;;;;5059288;28;19972;-72
2023/09/26 07:29:32;;;;;;;;;;;17.70;99.90;;;;;;5059475;28;20404;-73
2023/09/26 07:31:58;;;;;;;;;;;17.80;99.90;;;;;;5059373;28;19920;-72
2023/09/26 07:34:23;;;;;;;;;;;17.90;99.90;;;;;;5059241;28;19920;-72
2023/09/26 07:36:49;;;;;;;;;;;18.00;99.90;;;;;;5059342;28;19924;-72
2023/09/26 07:39:16;;;;;;;;;;;18.10;99.90;;;;;;5059253;28;19909;-72
2023/09/26 07:41:41;;;;;;;;;;;18.20;99.90;;;;;;5057703;28;19956;-73
2023/09/26 07:44:07;;;;;;;;;;;18.30;99.90;;;;;;5058854;28;19909;-72
2023/09/26 07:46:32;;;;;;;;;;;18.30;99.90;;;;;;5059270;28;19912;-73
2023/09/26 07:48:58;;;;;;;;;;;18.40;99.90;;;;;;5059144;28;20296;-72
2023/09/26 07:51:23;;;;;;;;;;;18.50;99.90;;;;;;5059184;28;19935;-72
2023/09/26 07:53:49;;;;;;;;;;;18.50;99.90;;;;;;5058766;28;19909;-72
2023/09/26 07:56:14;;;;;;;;;;;18.60;99.90;;;;;;5057793;28;19908;-72
2023/09/26 07:58:40;;;;;;;;;;;18.60;99.90;;;;;;5058497;28;19908;-72
2023/09/26 08:01:09;;;;;;;;;;;18.70;99.90;;;;;;5059095;28;19988;-72
2023/09/26 08:03:38;;;;;;;;;;;18.80;99.90;;;;;;5058741;28;19909;-74
2023/09/26 08:06:06;;;;;;;;;;;19.00;99.90;;;;;;5074026;28;19932;-73
2023/09/26 08:08:32;;;;;;;;;;;19.00;99.90;;;;;;5058608;28;20019;-73
2023/09/26 08:11:05;;;;;;;;;;;19.10;99.90;;;;;;5058784;28;19952;-74
2023/09/26 08:13:31;;;;;;;;;;;19.10;99.90;;;;;;5057643;28;19920;-72
2023/09/26 08:15:57;;;;;;;;;;;19.20;99.90;;;;;;5058785;28;19916;-73
2023/09/26 08:18:23;;;;;;;;;;;19.20;99.90;;;;;;5058655;28;19959;-73
2023/09/26 08:20:55;;;;;;;;;;;19.30;99.90;;;;;;5058723;28;19908;-73
2023/09/26 08:23:20;;;;;;;;;;;19.30;99.90;;;;;;5072581;28;19910;-73
2023/09/26 08:25:46;;;;;;;;;;;19.30;99.90;;;;;;5050320;28;19944;-72
2023/09/26 08:28:11;;;;;;;;;;;19.50;99.90;;;;;;5058395;28;19924;-73
2023/09/26 08:30:37;;;;;;;;;;;19.60;99.90;;;;;;5057359;28;19913;-73
2023/09/26 08:33:02;;;;;;;;;;;19.60;99.90;;;;;;5058611;28;19919;-73
2023/09/26 08:35:30;;;;;;;;;;;19.60;99.90;;;;;;5058450;28;19916;-72
2023/09/26 08:37:56;;;;;;;;;;;19.70;99.90;;;;;;5055969;28;20380;-73
2023/09/26 08:40:24;;;;;;;;;;;19.80;99.90;;;;;;5058482;28;19909;-73
2023/09/26 08:42:52;;;;;;;;;;;19.90;99.90;;;;;;5058147;28;19909;-73
2023/09/26 08:45:18;;;;;;;;;;;19.90;99.90;;;;;;5058635;28;19915;-73
2023/09/26 08:47:44;;;;;;;;;;;20.00;99.90;;;;;;5056946;28;19995;-73
2023/09/26 08:50:10;;;;;;;;;;;20.10;99.90;;;;;;5058346;28;19952;-73
2023/09/26 08:52:35;;;;;;;;;;;20.20;99.90;;;;;;5058244;28;19932;-73
2023/09/26 08:55:02;;;;;;;;;;;20.30;99.90;;;;;;5058248;28;19917;-73
2023/09/26 08:57:27;;;;;;;;;;;20.30;99.90;;;;;;5071695;28;19909;-73
2023/09/26 08:59:54;;;;;;;;;;;20.40;99.90;;;;;;5048831;28;19912;-73
2023/09/26 09:02:19;;;;;;;;;;;20.40;99.90;;;;;;5058102;28;19979;-73
2023/09/26 09:04:45;;;;;;;;;;;20.60;99.90;;;;;;5058033;28;19917;-73
2023/09/26 09:07:14;;;;;;;;;;;20.60;99.90;;;;;;5057975;28;20293;-73
2023/09/26 09:09:59;;;;;;;;;;;20.60;99.90;;;;;;5056648;28;19915;-73
2023/09/26 09:12:25;;;;;;;;;;;20.60;99.90;;;;;;5056673;28;19919;-72
2023/09/26 09:14:51;;;;;;;;;;;20.70;99.90;;;;;;5056698;28;19947;-72
2023/09/26 09:17:16;;;;;;;;;;;20.80;99.90;;;;;;5058043;28;20439;-73
2023/09/26 09:19:45;;;;;;;;;;;20.90;99.90;;;;;;5057500;28;20371;-73
2023/09/26 09:22:18;;;;;;;;;;;21.00;99.90;;;;;;5056360;28;19909;-73
2023/09/26 09:24:50;;;;;;;;;;;21.10;99.90;;;;;;5057677;28;21588;-73
2023/09/26 09:27:16;;;;;;;;;;;21.20;99.90;;;;;;5057329;28;20779;-73
2023/09/26 09:29:41;;;;;;;;;;;21.30;99.90;;;;;;5057511;28;19908;-73
2023/09/26 09:32:07;;;;;;;;;;;21.40;99.90;;;;;;5057681;28;20034;-73
2023/09/26 09:34:34;;;;;;;;;;;21.50;99.90;;;;;;5056067;28;19920;-72
2023/09/26 09:37:00;;;;;;;;;;;21.50;99.90;;;;;;5056017;28;20053;-74
2023/09/26 09:39:25;;;;;;;;;;;21.50;99.90;;;;;;5056055;28;19943;-72
2023/09/26 09:41:55;;;;;;;;;;;21.50;99.90;;;;;;5055844;28;19909;-73
2023/09/26 09:44:21;;;;;;;;;;;21.60;99.90;;;;;;5057188;28;19916;-73
2023/09/26 09:46:48;;;;;;;;;;;21.60;99.90;;;;;;5057311;28;19909;-73
2023/09/26 09:49:17;;;;;;;;;;;21.60;99.90;;;;;;5056857;28;19908;-73
2023/09/26 09:51:45;;;;;;;;;;;21.70;99.90;;;;;;5057028;28;19915;-73
2023/09/26 09:54:13;;;;;;;;;;;21.80;99.90;;;;;;5055695;28;20344;-73
2023/09/26 09:56:38;;;;;;;;;;;21.90;99.90;;;;;;5056908;28;19909;-73
2023/09/26 09:59:08;;;;;;;;;;;22.00;99.90;;;;;;5070876;28;20301;-73
2023/09/26 10:01:35;;;;;;;;;;;22.00;99.90;;;;;;5069290;28;19909;-74
2023/09/26 10:04:01;;;;;;;;;;;22.00;99.90;;;;;;5055535;28;19913;-73
2023/09/26 10:06:27;;;;;;;;;;;22.10;99.90;;;;;;5056941;28;19966;-74
2023/09/26 10:08:54;;;;;;;;;;;22.20;99.90;;;;;;5056720;28;19947;-73
2023/09/26 10:11:21;;;;;;;;;;;22.30;99.90;;;;;;5056879;28;19915;-73
2023/09/26 10:13:47;;;;;;;;;;;22.40;99.90;;;;;;5056532;28;20373;-73
2023/09/26 10:16:17;;;;;;;;;;;22.40;99.90;;;;;;5056770;28;19985;-73
2023/09/26 10:18:44;;;;;;;;;;;22.40;99.90;;;;;;5056534;28;19909;-74
2023/09/26 10:21:26;;;;;;;;;;;22.50;99.90;;;;;;5055229;28;19909;-73
2023/09/26 10:24:04;;;;;;;;;;;22.50;99.90;;;;;;5056610;28;19992;-73
2023/09/26 10:26:29;;;;;;;;;;;22.60;99.90;;;;;;5056126;28;19949;-73
2023/09/26 10:28:55;;;;;;;;;;;22.70;99.90;;;;;;5055196;28;19916;-73
2023/09/26 10:31:21;;;;;;;;;;;22.70;99.90;;;;;;5056426;28;19909;-73
2023/09/26 10:33:56;;;;;;;;;;;22.80;99.90;;;;;;5056566;28;19912;-73
2023/09/26 10:36:22;;;;;;;;;;;22.70;99.90;;;;;;5056200;28;19917;-73
2023/09/26 10:38:59;;;;;;;;;;;22.80;99.90;;;;;;5055086;28;19940;-73
2023/09/26 10:41:26;;;;;;;;;;;22.90;99.90;;;;;;5054763;28;19909;-73
2023/09/26 10:43:51;;;;;;;;;;;23.00;99.90;;;;;;5056279;28;20032;-73
2023/09/26 10:46:18;;;;;;;;;;;23.00;99.90;;;;;;5068259;28;19944;-73
2023/09/26 10:48:43;;;;;;;;;;;23.10;99.90;;;;;;5049464;28;19909;-73
2023/09/26 10:51:09;;;;;;;;;;;23.00;99.90;;;;;;5054748;28;19947;-73
2023/09/26 10:53:35;;;;;;;;;;;23.00;99.90;;;;;;5056264;28;19908;-74
2023/09/26 10:56:00;;;;;;;;;;;23.10;99.90;;;;;;5056290;28;20381;-73
2023/09/26 10:58:26;;;;;;;;;;;23.20;99.90;;;;;;5055973;28;19909;-74
2023/09/26 11:00:51;;;;;;;;;;;23.30;99.90;;;;;;5055352;28;19913;-73
2023/09/26 11:03:17;;;;;;;;;;;23.40;99.90;;;;;;5056106;28;19920;-74
2023/09/26 11:05:43;;;;;;;;;;;23.50;99.90;;;;;;5055782;28;20034;-73
2023/09/26 11:08:09;;;;;;;;;;;23.50;99.90;;;;;;5056085;28;19956;-73
2023/09/26 11:10:35;;;;;;;;;;;23.50;99.90;;;;;;5055959;28;19935;-74
2023/09/26 11:13:02;;;;;;;;;;;23.50;99.90;;;;;;5054464;28;19924;-74
2023/09/26 11:15:29;;;;;;;;;;;23.70;99.90;;;;;;5054512;28;19917;-73
2023/09/26 11:17:55;;;;;;;;;;;23.70;99.90;;;;;;5055924;28;19959;-74
2023/09/26 11:20:20;;;;;;;;;;;23.80;99.90;;;;;;5054225;28;19908;-73
2023/09/26 11:22:47;;;;;;;;;;;23.70;99.90;;;;;;5055919;28;19916;-74
2023/09/26 11:25:13;;;;;;;;;;;23.80;99.90;;;;;;5056125;28;19909;-73
2023/09/26 11:27:39;;;;;;;;;;;23.90;99.90;;;;;;5055520;28;19991;-73
2023/09/26 11:30:09;;;;;;;;;;;23.90;99.90;;;;;;5054396;28;19984;-73
2023/09/26 11:32:34;;;;;;;;;;;23.90;99.90;;;;;;5056058;28;19908;-73
2023/09/26 11:35:00;;;;;;;;;;;24.00;99.90;;;;;;5080854;28;20262;-73
2023/09/26 11:37:29;;;;;;;;;;;24.10;99.90;;;;;;5049350;28;19908;-73
2023/09/26 11:39:55;;;;;;;;;;;24.20;99.90;;;;;;5055820;28;20006;-73
2023/09/26 11:42:21;;;;;;;;;;;24.20;99.90;;;;;;5054268;28;19909;-73
2023/09/26 11:44:53;;;;;;;;;;;24.20;99.90;;;;;;5054243;28;19996;-74
2023/09/26 11:47:23;;;;;;;;;;;24.30;99.90;;;;;;5055870;28;20435;-73
2023/09/26 11:49:49;;;;;;;;;;;24.40;99.90;;;;;;5054305;28;19920;-73
2023/09/26 11:52:18;;;;;;;;;;;24.50;99.90;;;;;;5074290;28;19919;-73
2023/09/26 11:54:44;;;;;;;;;;;24.60;99.90;;;;;;5055619;28;19987;-73
2023/09/26 11:57:11;;;;;;;;;;;24.60;99.90;;;;;;5055448;28;19913;-74
2023/09/26 11:59:36;;;;;;;;;;;24.70;99.90;;;;;;5054256;28;20284;-73
2023/09/26 12:02:02;;;;;;;;;;;24.70;99.90;;;;;;5055618;28;19954;-74
2023/09/26 12:04:28;;;;;;;;;;;24.70;99.90;;;;;;5054583;28;20067;-74
2023/09/26 12:06:54;;;;;;;;;;;24.70;99.90;;;;;;5055483;28;19993;-74
2023/09/26 12:09:20;;;;;;;;;;;24.80;99.90;;;;;;5054312;28;19992;-73
2023/09/26 12:11:46;;;;;;;;;;;24.80;99.90;;;;;;5056863;28;20071;-73
2023/09/26 12:14:12;;;;;;;;;;;24.80;99.90;;;;;;5057744;28;19916;-73
2023/09/26 12:16:37;;;;;;;;;;;24.90;99.90;;;;;;5059002;28;19916;-74
2023/09/26 12:19:03;;;;;;;;;;;25.00;99.90;;;;;;5057688;28;20380;-73
2023/09/26 12:21:28;;;;;;;;;;;25.00;99.90;;;;;;5058884;28;19942;-73
2023/09/26 12:23:54;;;;;;;;;;;25.00;99.90;;;;;;5059243;28;20016;-73
2023/09/26 12:26:20;;;;;;;;;;;25.10;99.90;;;;;;5058544;28;19982;-73
2023/09/26 12:28:45;;;;;;;;;;;25.20;99.90;;;;;;5058922;28;19916;-73
2023/09/26 12:31:11;;;;;;;;;;;25.30;99.90;;;;;;5059037;28;19944;-73
2023/09/26 12:33:37;;;;;;;;;;;25.30;99.90;;;;;;5059050;28;19909;-74
2023/09/26 12:36:02;;;;;;;;;;;25.40;99.90;;;;;;5058551;28;20510;-74
2023/09/26 12:38:28;;;;;;;;;;;25.30;99.90;;;;;;5058503;28;19912;-74
2023/09/26 12:40:54;;;;;;;;;;;25.30;99.90;;;;;;5058589;28;19944;-73
2023/09/26 12:43:19;;;;;;;;;;;25.40;99.90;;;;;;5087222;28;19909;-74
2023/09/26 12:45:45;;;;;;;;;;;25.40;99.90;;;;;;5072172;28;19999;-74
2023/09/26 12:48:10;;;;;;;;;;;25.50;99.90;;;;;;5058630;28;19959;-74
2023/09/26 12:50:36;;;;;;;;;;;25.60;99.90;;;;;;5057128;28;20007;-73
2023/09/26 12:53:02;;;;;;;;;;;25.60;99.90;;;;;;5057184;28;19909;-73
2023/09/26 12:55:27;;;;;;;;;;;25.60;99.90;;;;;;5057000;28;19913;-73
2023/09/26 12:57:53;;;;;;;;;;;25.60;99.90;;;;;;5058291;28;20294;-74
2023/09/26 13:00:19;;;;;;;;;;;25.70;99.90;;;;;;5058394;28;19920;-74
2023/09/26 13:02:44;;;;;;;;;;;25.80;99.90;;;;;;5057096;28;19994;-73
2023/09/26 13:05:10;;;;;;;;;;;25.90;99.90;;;;;;5058141;28;20007;-73
2023/09/26 13:07:36;;;;;;;;;;;26.00;99.90;;;;;;5058269;28;19913;-73
2023/09/26 13:10:01;;;;;;;;;;;26.10;99.90;;;;;;5056880;28;20312;-74
2023/09/26 13:12:27;;;;;;;;;;;26.20;99.90;;;;;;5058036;28;19963;-73
2023/09/26 13:14:52;;;;;;;;;;;26.40;99.90;;;;;;5056760;28;20408;-74
2023/09/26 13:17:18;;;;;;;;;;;26.40;99.90;;;;;;5056732;28;20376;-74
2023/09/26 13:19:44;;;;;;;;;;;26.30;99.90;;;;;;5056472;28;20328;-74
2023/09/26 13:22:13;;;;;;;;;;;26.40;99.90;;;;;;5058062;28;19908;-73
2023/09/26 13:24:39;;;;;;;;;;;26.40;99.90;;;;;;5057296;28;19916;-74
2023/09/26 13:27:05;;;;;;;;;;;26.50;99.90;;;;;;5057680;28;19921;-73
2023/09/26 13:29:31;;;;;;;;;;;26.60;99.90;;;;;;5056552;28;20300;-73
2023/09/26 13:31:56;;;;;;;;;;;26.80;99.90;;;;;;5057878;28;19917;-74
2023/09/26 13:34:22;;;;;;;;;;;27.00;99.90;;;;;;5057803;28;19916;-73
2023/09/26 13:36:47;;;;;;;;;;;27.10;99.70;;;;;;5056283;28;19909;-74
2023/09/26 13:39:15;;;;;;;;;;;27.20;97.20;;;;;;5057232;28;20480;-74
2023/09/26 13:41:41;;;;;;;;;;;27.30;96.80;;;;;;5081136;28;20385;-74
2023/09/26 13:44:06;;;;;;;;;;;27.40;95.40;;;;;;5052749;28;20346;-74
2023/09/26 13:46:33;;;;;;;;;;;27.40;95.10;;;;;;5056341;28;19935;-74
2023/09/26 13:48:59;;;;;;;;;;;27.40;95.60;;;;;;5056449;28;20406;-74
2023/09/26 13:51:25;;;;;;;;;;;27.50;96.00;;;;;;5056162;28;19995;-73
2023/09/26 13:53:51;;;;;;;;;;;27.40;96.50;;;;;;5056105;28;20280;-74
2023/09/26 13:56:16;;;;;;;;;;;27.50;97.70;;;;;;5057417;28;19948;-74
2023/09/26 13:58:42;;;;;;;;;;;27.50;95.10;;;;;;5057341;28;19956;-73
2023/09/26 14:01:08;;;;;;;;;;;27.50;94.20;;;;;;5057414;28;19912;-74
2023/09/26 14:03:33;;;;;;;;;;;27.70;93.80;;;;;;5057243;28;19917;-73
2023/09/26 14:05:59;;;;;;;;;;;27.70;94.00;;;;;;5057213;28;19909;-73
2023/09/26 14:08:25;;;;;;;;;;;27.80;95.50;;;;;;5057100;28;19913;-74
2023/09/26 14:10:51;;;;;;;;;;;27.80;92.30;;;;;;5055951;28;20332;-73